Time;durP1;ratioP1;P1;durP2;ratioP2;P2;SDS_P1;SDS_P2;PMS_P1;PMS_P2;Temp;Humidity;BMP_temperature;BMP_pressure;BME280_temperature;BME280_humidity;BME280_pressure;Samples;Min_cycle;Max_cycle;Signal;HPM_P1;HPM_P2
2021/10/13 00:00:31;;;;;;;22.00;13.07;;;11.20;93.90;;;;;;5018609;28;20112;-93
2021/10/13 00:02:56;;;;;;;22.77;14.90;;;11.20;94.00;;;;;;5018503;28;20025;-92
2021/10/13 00:05:22;;;;;;;26.88;14.38;;;11.30;94.10;;;;;;5018376;28;20032;-92
2021/10/13 00:07:48;;;;;;;27.58;16.02;;;11.30;94.20;;;;;;5018515;28;20065;-92
2021/10/13 00:10:13;;;;;;;21.98;12.65;;;11.20;94.10;;;;;;5018682;28;20025;-92
2021/10/13 00:12:39;;;;;;;26.95;17.80;;;11.20;94.20;;;;;;5035985;28;20031;-92
2021/10/13 00:15:08;;;;;;;24.13;13.65;;;11.20;94.10;;;;;;5018874;28;20449;-92
2021/10/13 00:17:34;;;;;;;24.92;14.05;;;11.20;94.00;;;;;;5018136;28;20021;-92
2021/10/13 00:20:02;;;;;;;24.50;14.93;;;11.20;94.10;;;;;;5023359;28;20045;-92
2021/10/13 00:22:28;;;;;;;23.40;12.75;;;11.20;94.20;;;;;;5056042;28;20059;-92
2021/10/13 00:24:53;;;;;;;25.45;12.27;;;11.10;94.00;;;;;;5038380;28;20041;-92
2021/10/13 00:27:19;;;;;;;18.95;11.23;;;11.10;93.90;;;;;;5037983;28;20061;-92
2021/10/13 00:29:45;;;;;;;20.77;13.50;;;11.10;93.90;;;;;;5055224;28;20046;-92
2021/10/13 00:32:10;;;;;;;18.70;10.70;;;11.10;93.80;;;;;;5038143;28;20021;-92
2021/10/13 00:34:36;;;;;;;21.42;13.60;;;11.10;93.80;;;;;;5055664;28;20075;-92
2021/10/13 00:37:02;;;;;;;20.92;12.52;;;11.00;93.70;;;;;;5037445;28;20021;-92
2021/10/13 00:39:28;;;;;;;12.65;8.82;;;11.00;93.70;;;;;;5037537;28;20033;-92
2021/10/13 00:41:54;;;;;;;20.73;11.85;;;11.00;93.60;;;;;;5037668;28;20032;-92
2021/10/13 00:44:20;;;;;;;19.02;11.50;;;11.00;93.70;;;;;;5037714;28;20025;-92
2021/10/13 00:46:45;;;;;;;18.73;13.00;;;11.00;93.70;;;;;;5037593;28;20423;-92
2021/10/13 00:49:11;;;;;;;21.45;15.15;;;11.00;93.70;;;;;;5037927;28;20028;-92
2021/10/13 00:51:37;;;;;;;27.17;17.27;;;11.00;93.70;;;;;;5037712;28;20083;-92
2021/10/13 00:54:03;;;;;;;23.63;16.13;;;11.00;94.00;;;;;;5054898;28;20093;-92
2021/10/13 00:56:29;;;;;;;25.15;15.65;;;10.90;94.10;;;;;;5037287;28;20029;-92
2021/10/13 00:58:54;;;;;;;24.05;15.40;;;10.90;94.40;;;;;;5037396;28;20065;-92
2021/10/13 01:01:28;;;;;;;27.90;19.58;;;10.90;94.30;;;;;;5037112;28;20053;-92
2021/10/13 01:04:13;;;;;;;28.35;17.52;;;10.80;94.70;;;;;;5037813;28;20518;-92
2021/10/13 01:07:20;;;;;;;33.00;18.95;;;10.80;95.20;;;;;;5055013;28;20108;-93
2021/10/13 01:09:59;;;;;;;33.65;21.23;;;10.80;95.20;;;;;;4938733;29;20459;-92
2021/10/13 01:12:38;;;;;;;30.20;16.73;;;10.80;95.20;;;;;;5025621;28;20041;-93
2021/10/13 01:15:27;;;;;;;21.55;12.82;;;10.70;95.30;;;;;;5037561;28;20481;-92
2021/10/13 01:18:03;;;;;;;22.48;14.18;;;10.70;95.30;;;;;;5037834;28;20383;-92
2021/10/13 01:20:32;;;;;;;25.02;14.82;;;10.70;95.30;;;;;;5033926;28;20361;-92
2021/10/13 01:23:28;;;;;;;24.00;13.77;;;10.70;95.20;;;;;;5035507;28;20546;-92
2021/10/13 01:26:03;;;;;;;35.00;18.83;;;10.70;95.20;;;;;;5031079;28;20042;-92
2021/10/13 01:28:35;;;;;;;24.70;15.30;;;10.70;95.80;;;;;;5040571;28;20025;-91
2021/10/13 01:31:22;;;;;;;40.50;24.63;;;10.70;96.20;;;;;;5043026;28;20036;-92
2021/10/13 01:33:51;;;;;;;31.58;19.05;;;10.60;96.60;;;;;;5036086;28;20056;-92
2021/10/13 01:36:25;;;;;;;40.33;23.65;;;10.60;96.60;;;;;;5034822;28;20029;-92
2021/10/13 01:38:52;;;;;;;;;;;10.60;97.10;;;;;;5035256;28;20515;-92
2021/10/13 01:41:20;;;;;;;39.88;20.45;;;10.50;99.70;;;;;;5033877;28;19971;-92
2021/10/13 01:43:49;;;;;;;40.80;25.35;;;10.50;97.10;;;;;;5034662;28;20357;-92
2021/10/13 01:46:16;;;;;;;32.58;20.33;;;10.50;97.40;;;;;;5033450;28;20065;-93
2021/10/13 01:48:44;;;;;;;34.05;20.63;;;10.50;97.10;;;;;;5032784;28;20030;-92
2021/10/13 01:51:12;;;;;;;29.35;18.00;;;10.40;97.10;;;;;;5034422;28;20108;-91
2021/10/13 01:53:39;;;;;;;35.35;21.90;;;10.40;97.10;;;;;;5034887;28;20514;-91
2021/10/13 01:56:06;;;;;;;42.85;22.58;;;10.40;97.70;;;;;;5034408;28;20029;-92
2021/10/13 01:58:34;;;;;;;34.13;23.13;;;10.40;97.90;;;;;;5034086;28;20025;-91
2021/10/13 02:01:02;;;;;;;31.85;20.98;;;10.40;97.40;;;;;;5033735;28;20029;-92
2021/10/13 02:03:30;;;;;;;33.75;21.48;;;10.40;97.50;;;;;;5033068;28;20133;-92
2021/10/13 02:06:01;;;;;;;37.00;22.35;;;10.40;97.60;;;;;;5033124;28;20030;-92
2021/10/13 02:08:28;;;;;;;30.70;20.15;;;10.40;98.20;;;;;;5033205;28;20053;-92
2021/10/13 02:10:56;;;;;;;30.08;19.42;;;10.40;98.20;;;;;;5033312;28;20033;-92
2021/10/13 02:13:24;;;;;;;32.03;19.08;;;10.40;98.10;;;;;;5034706;28;20025;-92
2021/10/13 02:15:53;;;;;;;25.15;15.60;;;10.40;97.80;;;;;;5043866;28;20087;-91
2021/10/13 02:18:27;;;;;;;26.40;16.30;;;10.40;97.80;;;;;;5047266;28;20025;-92
2021/10/13 02:20:55;;;;;;;24.77;15.20;;;10.40;97.80;;;;;;5033841;28;20069;-92
2021/10/13 02:23:24;;;;;;;37.33;20.23;;;10.40;97.80;;;;;;5035300;28;20109;-92
2021/10/13 02:25:52;;;;;;;26.38;17.42;;;10.40;97.90;;;;;;5016799;28;20033;-92
2021/10/13 02:28:24;;;;;;;22.48;13.77;;;10.50;97.90;;;;;;5016616;28;20087;-92
2021/10/13 02:30:51;;;;;;;24.80;15.27;;;10.50;97.90;;;;;;5016786;28;20077;-92
2021/10/13 02:33:17;;;;;;;30.05;17.27;;;10.50;97.80;;;;;;5034092;28;20033;-92
2021/10/13 02:35:43;;;;;;;28.02;18.88;;;10.50;97.80;;;;;;5016817;28;20384;-92
2021/10/13 02:38:09;;;;;;;30.35;19.13;;;10.50;97.90;;;;;;5020263;28;20029;-92
2021/10/13 02:40:35;;;;;;;24.33;14.30;;;10.50;97.90;;;;;;5029560;28;20029;-92
2021/10/13 02:43:01;;;;;;;19.00;12.05;;;10.50;97.70;;;;;;5022946;28;20041;-93
2021/10/13 02:45:31;;;;;;;25.63;16.55;;;10.50;97.90;;;;;;5021265;28;20052;-93
2021/10/13 02:48:02;;;;;;;26.38;14.85;;;10.50;97.90;;;;;;5016295;28;20040;-92
2021/10/13 02:50:35;;;;;;;28.25;17.00;;;10.50;98.00;;;;;;5015975;28;20026;-92
2021/10/13 02:53:16;;;;;;;24.63;15.83;;;10.50;97.80;;;;;;5018842;28;20030;-92
2021/10/13 02:55:47;;;;;;;21.48;15.20;;;10.40;98.00;;;;;;5020332;28;20037;-91
2021/10/13 02:58:46;;;;;;;24.52;14.23;;;10.40;98.10;;;;;;5021174;28;20026;-92
2021/10/13 03:01:16;;;;;;;24.17;13.30;;;10.40;97.80;;;;;;5019551;28;20055;-92
2021/10/13 03:03:47;;;;;;;23.38;14.35;;;10.40;97.60;;;;;;5019788;28;20029;-92
2021/10/13 03:06:13;;;;;;;22.92;14.25;;;10.30;97.80;;;;;;5019375;28;20068;-92
2021/10/13 03:08:44;;;;;;;30.15;17.55;;;10.30;97.80;;;;;;5019514;28;20029;-92
2021/10/13 03:11:12;;;;;;;25.98;15.65;;;10.30;98.00;;;;;;5019869;28;20376;-92
2021/10/13 03:13:39;;;;;;;18.77;11.73;;;10.20;97.70;;;;;;5037138;28;20150;-92
2021/10/13 03:16:08;;;;;;;19.10;13.27;;;10.20;97.80;;;;;;5020032;28;20380;-92
2021/10/13 03:18:37;;;;;;;26.55;15.35;;;10.20;97.80;;;;;;5018937;28;20029;-92
2021/10/13 03:21:04;;;;;;;23.33;14.23;;;10.20;98.20;;;;;;5019246;28;20388;-92
2021/10/13 03:23:30;;;;;;;18.42;11.90;;;10.20;98.00;;;;;;5036895;28;20057;-92
2021/10/13 03:26:14;;;;;;;16.67;10.15;;;10.10;97.90;;;;;;5019168;28;20502;-92
2021/10/13 03:28:41;;;;;;;15.70;11.10;;;10.10;98.00;;;;;;5019286;28;20032;-92
2021/10/13 03:31:07;;;;;;;21.10;14.95;;;10.10;97.70;;;;;;5019338;28;20036;-91
2021/10/13 03:33:36;;;;;;;20.92;12.95;;;10.10;98.00;;;;;;5018946;28;20025;-92
2021/10/13 03:36:03;;;;;;;14.95;9.38;;;10.10;97.90;;;;;;5036621;28;20021;-92
2021/10/13 03:38:29;;;;;;;18.20;10.93;;;10.10;97.80;;;;;;5020110;28;20033;-90
2021/10/13 03:40:56;;;;;;;18.55;10.25;;;10.00;97.90;;;;;;5022670;28;20097;-92
2021/10/13 03:43:22;;;;;;;12.43;8.10;;;10.00;98.10;;;;;;5023649;28;20450;-92
2021/10/13 03:45:48;;;;;;;22.88;15.07;;;10.00;97.80;;;;;;5019647;28;20120;-92
2021/10/13 03:48:19;;;;;;;17.25;11.95;;;10.00;97.90;;;;;;5019191;28;20358;-92
2021/10/13 03:50:44;;;;;;;15.90;9.50;;;10.00;98.30;;;;;;5019005;28;20033;-92
2021/10/13 03:53:10;;;;;;;16.00;10.63;;;10.00;98.00;;;;;;5018872;28;20534;-92
2021/10/13 03:55:36;;;;;;;20.88;12.35;;;10.00;98.50;;;;;;5018528;28;20064;-92
2021/10/13 03:58:02;;;;;;;17.27;11.45;;;10.00;98.30;;;;;;5018570;28;20025;-91
2021/10/13 04:00:28;;;;;;;16.33;11.02;;;10.00;98.20;;;;;;5020307;28;20547;-91
2021/10/13 04:02:54;;;;;;;24.20;13.45;;;9.90;98.30;;;;;;5018651;28;20167;-92
2021/10/13 04:05:19;;;;;;;17.67;12.52;;;9.90;98.70;;;;;;5017849;28;20114;-91
2021/10/13 04:07:45;;;;;;;20.10;13.93;;;9.90;98.40;;;;;;5018278;28;20033;-91
2021/10/13 04:10:14;;;;;;;23.27;14.93;;;10.00;98.50;;;;;;5037321;28;20076;-92
2021/10/13 04:12:40;;;;;;;24.83;14.40;;;9.90;98.70;;;;;;5037087;28;20468;-92
2021/10/13 04:15:08;;;;;;;21.98;14.80;;;9.90;98.70;;;;;;5018801;28;20029;-91
2021/10/13 04:17:34;;;;;;;26.40;15.20;;;9.90;99.10;;;;;;5019075;28;20108;-91
2021/10/13 04:20:01;;;;;;;27.20;15.65;;;9.90;99.00;;;;;;5027131;28;20056;-91
2021/10/13 04:22:27;;;;;;;28.45;16.33;;;9.90;99.00;;;;;;5051912;28;20047;-90
2021/10/13 04:24:53;;;;;;;25.02;14.13;;;9.90;99.20;;;;;;5067154;28;20075;-91
2021/10/13 04:27:18;;;;;;;23.52;13.15;;;9.90;99.10;;;;;;5044772;28;20037;-92
2021/10/13 04:29:44;;;;;;;30.45;17.73;;;9.90;98.80;;;;;;5042004;28;20155;-91
2021/10/13 04:32:10;;;;;;;24.25;14.57;;;9.90;98.90;;;;;;5041851;28;20025;-91
2021/10/13 04:34:35;;;;;;;27.50;17.40;;;10.00;98.80;;;;;;5040839;28;20029;-91
2021/10/13 04:37:01;;;;;;;24.67;15.48;;;10.00;99.10;;;;;;5042741;28;20025;-91
2021/10/13 04:39:27;;;;;;;18.63;12.20;;;10.00;99.00;;;;;;5041346;28;20024;-92
2021/10/13 04:41:53;;;;;;;21.13;12.90;;;9.90;99.00;;;;;;5041288;28;20036;-92
2021/10/13 04:44:19;;;;;;;21.20;13.75;;;10.00;98.80;;;;;;5060667;28;20029;-91
2021/10/13 04:46:45;;;;;;;33.60;15.05;;;10.00;98.80;;;;;;5041405;28;20029;-92
2021/10/13 04:49:10;;;;;;;38.45;20.17;;;10.00;98.80;;;;;;5040547;28;20021;-92
2021/10/13 04:51:36;;;;;;;28.63;17.67;;;10.00;98.90;;;;;;5040889;28;20025;-92
2021/10/13 04:54:02;;;;;;;26.33;17.15;;;10.00;99.00;;;;;;5041562;28;20464;-92
2021/10/13 04:56:36;;;;;;;26.95;17.55;;;9.90;99.20;;;;;;5039531;28;20033;-92
2021/10/13 04:59:02;;;;;;;30.23;17.92;;;9.90;99.50;;;;;;5038839;28;20082;-91
2021/10/13 05:01:28;;;;;;;25.65;16.55;;;9.90;99.20;;;;;;5038831;28;20119;-91
2021/10/13 05:03:54;;;;;;;32.10;19.67;;;9.90;99.20;;;;;;5058330;28;20068;-93
2021/10/13 05:06:19;;;;;;;31.35;20.00;;;9.90;99.40;;;;;;5040429;28;20104;-92
2021/10/13 05:08:45;;;;;;;27.33;17.10;;;9.80;99.80;;;;;;5057741;28;20362;-93
2021/10/13 05:11:11;;;;;;;30.77;18.63;;;9.80;99.70;;;;;;5057868;28;20043;-93
2021/10/13 05:13:36;;;;;;;43.00;21.15;;;9.80;99.60;;;;;;5039819;28;20051;-92
2021/10/13 05:16:02;;;;;;;33.85;17.63;;;9.80;99.80;;;;;;5052166;28;20021;-92
2021/10/13 05:18:28;;;;;;;30.23;18.17;;;9.70;99.70;;;;;;5050326;28;20390;-92
2021/10/13 05:20:54;;;;;;;33.75;22.52;;;9.70;99.50;;;;;;5055398;28;20408;-93
2021/10/13 05:23:20;;;;;;;32.28;19.85;;;9.70;99.90;;;;;;5057160;28;20407;-92
2021/10/13 05:25:45;;;;;;;32.00;18.77;;;9.70;99.90;;;;;;5056286;28;20037;-92
2021/10/13 05:28:11;;;;;;;40.47;24.08;;;9.70;99.90;;;;;;5053794;28;20089;-92
2021/10/13 05:30:37;;;;;;;35.17;21.98;;;9.70;99.90;;;;;;5040917;28;20029;-92
2021/10/13 05:33:06;;;;;;;30.88;18.02;;;9.70;99.70;;;;;;5038038;28;20041;-92
2021/10/13 05:35:32;;;;;;;26.48;14.93;;;9.70;99.80;;;;;;5037706;28;20033;-93
2021/10/13 05:37:58;;;;;;;34.13;20.17;;;9.70;99.70;;;;;;5041470;28;20064;-92
2021/10/13 05:40:26;;;;;;;32.60;20.65;;;9.70;99.90;;;;;;5041728;28;20483;-92
2021/10/13 05:42:51;;;;;;;30.40;18.52;;;9.60;99.90;;;;;;5039631;28;20026;-93
2021/10/13 05:45:20;;;;;;;29.42;17.75;;;9.60;99.90;;;;;;5041124;28;20113;-92
2021/10/13 05:47:46;;;;;;;27.85;16.25;;;9.60;99.90;;;;;;5037519;28;20532;-92
2021/10/13 05:50:12;;;;;;;30.08;18.63;;;9.60;99.90;;;;;;5038115;28;20025;-92
2021/10/13 05:52:37;;;;;;;26.13;16.02;;;9.60;99.90;;;;;;5035894;28;20052;-92
2021/10/13 05:55:03;;;;;;;32.72;18.52;;;9.60;99.90;;;;;;5035651;28;20093;-92
2021/10/13 05:57:31;;;;;;;29.95;18.15;;;9.60;99.90;;;;;;5038473;28;20085;-92
2021/10/13 06:00:10;;;;;;;29.70;17.98;;;9.60;99.90;;;;;;5053036;28;20033;-93
2021/10/13 06:02:49;;;;;;;31.95;20.25;;;9.60;99.90;;;;;;5054416;28;20029;-93
2021/10/13 06:05:34;;;;;;;34.72;20.30;;;9.60;99.90;;;;;;5051829;28;20033;-92
2021/10/13 06:07:59;;;;;;;32.80;21.10;;;9.60;99.90;;;;;;5040931;28;20165;-91
2021/10/13 06:11:08;;;;;;;;;;;;;;;;;;;;;
2021/10/13 06:13:44;;;;;;;33.17;17.30;;;9.60;99.90;;;;;;5039596;28;20084;-92
2021/10/13 06:16:14;;;;;;;32.63;18.90;;;9.50;99.90;;;;;;5039335;28;20483;-92
2021/10/13 06:18:40;;;;;;;29.00;17.27;;;9.60;99.90;;;;;;5049586;28;20476;-93
2021/10/13 06:21:06;;;;;;;29.95;17.15;;;9.60;99.90;;;;;;5039958;28;20056;-92
2021/10/13 06:23:41;;;;;;;34.85;22.38;;;9.60;99.90;;;;;;5045073;28;20383;-93
2021/10/13 06:26:07;;;;;;;31.65;19.38;;;9.60;99.90;;;;;;5039732;28;20037;-92
2021/10/13 06:28:33;;;;;;;24.05;15.38;;;9.60;99.90;;;;;;5032316;28;20084;-91
2021/10/13 06:31:01;;;;;;;37.78;21.42;;;9.60;99.90;;;;;;5037618;28;20029;-92
2021/10/13 06:33:27;;;;;;;30.95;19.50;;;9.60;99.90;;;;;;5047544;28;20467;-91
2021/10/13 06:35:53;;;;;;;34.58;20.35;;;9.60;99.90;;;;;;5053112;28;20021;-91
2021/10/13 06:38:21;;;;;;;27.67;16.08;;;9.50;99.90;;;;;;5058337;28;20492;-93
2021/10/13 06:40:50;;;;;;;39.95;23.05;;;9.60;99.90;;;;;;5054763;28;20029;-91
2021/10/13 06:43:23;;;;;;;39.95;23.27;;;9.60;99.90;;;;;;5056840;28;20033;-93
2021/10/13 06:45:49;;;;;;;36.72;19.85;;;9.60;99.90;;;;;;5037230;28;20044;-92
2021/10/13 06:48:15;;;;;;;34.22;21.27;;;9.50;99.90;;;;;;5039660;28;20025;-94
2021/10/13 06:50:41;;;;;;;30.48;20.40;;;9.50;99.90;;;;;;5035832;28;20538;-93
2021/10/13 06:53:07;;;;;;;36.28;20.58;;;9.50;99.90;;;;;;5036643;28;20441;-91
2021/10/13 06:55:38;;;;;;;30.00;19.48;;;9.50;99.90;;;;;;5039794;28;20500;-93
2021/10/13 06:58:04;;;;;;;33.78;19.98;;;9.40;99.90;;;;;;5050121;28;20078;-93
2021/10/13 07:00:32;;;;;;;33.38;19.75;;;9.40;99.90;;;;;;5038185;28;20053;-92
2021/10/13 07:03:02;;;;;;;32.83;19.17;;;9.30;99.90;;;;;;5043869;28;20029;-93
2021/10/13 07:05:28;;;;;;;33.13;18.77;;;9.30;99.90;;;;;;5019784;28;20128;-93
2021/10/13 07:07:58;;;;;;;36.72;22.00;;;9.30;99.90;;;;;;5039460;28;20516;-93
2021/10/13 07:10:34;;;;;;;30.65;20.88;;;9.30;99.90;;;;;;5047751;28;20036;-91
2021/10/13 07:13:03;;;;;;;31.58;18.30;;;9.20;99.90;;;;;;5065689;28;20027;-92
2021/10/13 07:15:44;;;;;;;31.20;19.50;;;9.10;99.90;;;;;;5046675;28;20045;-93
2021/10/13 07:18:20;;;;;;;37.75;23.02;;;9.10;99.90;;;;;;5035618;28;20045;-92
2021/10/13 07:21:00;;;;;;;34.33;18.85;;;9.10;99.90;;;;;;5057373;28;20057;-93
2021/10/13 07:23:30;;;;;;;26.40;17.63;;;9.00;99.90;;;;;;5057812;28;20061;-94
2021/10/13 07:25:58;;;;;;;27.13;16.00;;;8.90;99.90;;;;;;5015831;28;20487;-94
2021/10/13 07:28:28;;;;;;;21.45;14.85;;;8.90;99.90;;;;;;5050759;28;20403;-94
2021/10/13 07:30:59;;;;;;;32.63;17.35;;;8.90;99.90;;;;;;5060729;28;20040;-95
2021/10/13 07:33:28;;;;;;;26.88;18.33;;;8.80;99.90;;;;;;5062887;28;20044;-95
2021/10/13 07:35:56;;;;;;;30.83;19.73;;;8.80;99.90;;;;;;5062356;28;20040;-94
2021/10/13 07:38:29;;;;;;;30.25;19.63;;;8.80;99.90;;;;;;5064751;28;20029;-94
2021/10/13 07:40:56;;;;;;;23.58;15.50;;;8.70;99.90;;;;;;5060072;28;20060;-93
2021/10/13 07:43:22;;;;;;;28.13;15.98;;;8.70;99.90;;;;;;5060095;28;20033;-94
2021/10/13 07:45:48;;;;;;;29.17;14.70;;;8.70;99.90;;;;;;5058616;28;20086;-95
2021/10/13 07:48:17;;;;;;;23.40;14.02;;;8.70;99.90;;;;;;5066427;28;20037;-93
2021/10/13 07:50:43;;;;;;;32.95;17.25;;;8.70;99.90;;;;;;5068894;28;20049;-93
2021/10/13 07:53:09;;;;;;;24.70;14.45;;;8.70;99.90;;;;;;5062685;28;20083;-92
2021/10/13 07:55:38;;;;;;;32.22;15.63;;;8.60;99.90;;;;;;5047694;28;20025;-93
2021/10/13 07:58:10;;;;;;;28.88;15.68;;;8.60;99.90;;;;;;5065716;28;20033;-93
2021/10/13 08:01:12;;;;;;;30.40;15.10;;;8.60;99.90;;;;;;5062094;28;20056;-94
2021/10/13 08:07:08;;;;;;;24.05;14.23;;;8.50;99.90;;;;;;5063461;28;20399;-93
2021/10/13 08:13:16;;;;;;;27.77;15.68;;;8.40;99.90;;;;;;5037326;28;20039;-92
2021/10/13 08:19:08;;;;;;;20.27;12.57;;;8.40;99.90;;;;;;5041571;28;20048;-93
2021/10/13 08:29:06;;;;;;;20.92;11.57;;;8.30;99.90;;;;;;5031948;28;20068;-94
2021/10/13 08:32:00;;;;;;;22.77;14.85;;;8.30;99.90;;;;;;5014580;28;20042;-93
2021/10/13 08:37:58;;;;;;;20.00;12.70;;;8.30;99.90;;;;;;5014530;28;20021;-95
2021/10/13 08:43:56;;;;;;;19.27;11.98;;;8.20;99.90;;;;;;5017067;28;20385;-93
2021/10/13 08:49:47;;;;;;;20.60;12.65;;;8.30;99.90;;;;;;5054566;28;20071;-93
2021/10/13 08:55:45;;;;;;;22.08;14.27;;;8.30;99.90;;;;;;5056079;28;20093;-93
2021/10/13 08:58:16;;;;;;;23.67;15.15;;;8.30;99.90;;;;;;5054139;28;20059;-94
2021/10/13 09:00:44;;;;;;;20.92;14.50;;;8.30;99.90;;;;;;5038435;28;20029;-94
2021/10/13 09:03:33;;;;;;;30.30;18.58;;;8.30;99.90;;;;;;5036722;28;20077;-94
2021/10/13 09:09:50;;;;;;;21.15;13.45;;;8.30;99.90;;;;;;5057944;28;20032;-94
2021/10/13 09:15:52;;;;;;;30.10;18.17;;;8.20;99.90;;;;;;4994195;28;20033;-94
2021/10/13 09:35:04;;;;;;;26.55;15.40;;;8.20;99.90;;;;;;4988105;28;20057;-93
2021/10/13 09:37:50;;;;;;;27.17;16.55;;;8.20;99.90;;;;;;4996130;28;20030;-93
2021/10/13 09:40:31;;;;;;;25.08;15.50;;;8.20;99.90;;;;;;4996506;28;20047;-93
2021/10/13 09:43:00;;;;;;;25.15;15.93;;;8.20;99.90;;;;;;4996606;28;20208;-94
2021/10/13 09:45:31;;;;;;;24.88;15.27;;;8.30;99.90;;;;;;5006603;28;20045;-94
2021/10/13 09:51:23;;;;;;;29.02;16.40;;;8.30;99.90;;;;;;5055227;28;20101;-94
2021/10/13 09:57:25;;;;;;;25.30;16.30;;;8.30;99.90;;;;;;5060235;28;20094;-94
2021/10/13 10:00:00;;;;;;;27.20;15.43;;;8.20;99.90;;;;;;5045881;28;20119;-94
2021/10/13 10:06:08;;;;;;;22.20;14.13;;;8.20;99.90;;;;;;4999809;28;20049;-96
2021/10/13 10:12:08;;;;;;;19.60;13.18;;;8.20;99.90;;;;;;4999133;28;20026;-94
2021/10/13 10:18:01;;;;;;;25.25;15.98;;;8.20;99.90;;;;;;5004316;28;20029;-93
2021/10/13 10:20:35;;;;;;;23.38;15.18;;;8.20;99.90;;;;;;4983676;28;20062;-93
2021/10/13 10:26:30;;;;;;;25.33;15.15;;;8.20;99.90;;;;;;5040772;28;20048;-94
2021/10/13 10:29:13;;;;;;;20.65;12.05;;;8.20;99.90;;;;;;5023912;28;20037;-95
2021/10/13 10:31:41;;;;;;;28.02;13.45;;;8.20;99.90;;;;;;5041872;28;20037;-94
2021/10/13 10:34:07;;;;;;;24.85;15.90;;;8.20;99.90;;;;;;5025639;28;21915;-93
2021/10/13 10:36:56;;;;;;;20.73;14.18;;;8.20;99.90;;;;;;5038854;28;20624;-94
2021/10/13 10:49:49;;;;;;;20.65;13.63;;;8.20;99.90;;;;;;5003073;28;20489;-96
2021/10/13 10:52:16;;;;;;;27.73;14.05;;;8.20;99.90;;;;;;4991216;28;20115;-95
2021/10/13 10:54:54;;;;;;;24.00;14.13;;;8.20;99.90;;;;;;4987991;28;20038;-95
2021/10/13 10:57:41;;;;;;;20.27;13.57;;;8.10;99.90;;;;;;5010996;28;20033;-95
2021/10/13 11:03:25;;;;;;;21.75;12.70;;;8.10;99.90;;;;;;4997227;28;20137;-93
2021/10/13 11:05:54;;;;;;;19.83;12.38;;;8.20;99.90;;;;;;4981284;28;20049;-95
2021/10/13 11:08:20;;;;;;;18.40;12.45;;;8.20;99.90;;;;;;5000908;28;20090;-94
2021/10/13 11:10:46;;;;;;;25.83;14.98;;;8.10;99.90;;;;;;4981452;28;20069;-95
2021/10/13 11:13:12;;;;;;;29.33;15.02;;;8.20;99.90;;;;;;4978536;28;20062;-93
2021/10/13 11:15:39;;;;;;;27.50;16.13;;;8.20;99.90;;;;;;4995497;28;20620;-91
2021/10/13 11:18:15;;;;;;;21.10;14.65;;;8.20;99.90;;;;;;5001144;28;20199;-94
2021/10/13 11:20:42;;;;;;;24.38;15.60;;;8.20;99.90;;;;;;5006236;28;20038;-94
2021/10/13 11:23:11;;;;;;;27.50;15.68;;;8.20;99.90;;;;;;5001312;28;20038;-94
2021/10/13 11:25:39;;;;;;;28.65;17.08;;;8.30;99.90;;;;;;4998133;28;20096;-93
2021/10/13 11:28:11;;;;;;;22.67;14.77;;;8.30;99.90;;;;;;5007076;28;20034;-94
2021/10/13 11:34:07;;;;;;;22.52;14.05;;;8.30;99.90;;;;;;5032513;28;20060;-94
2021/10/13 11:36:56;;;;;;;25.60;15.85;;;8.30;99.90;;;;;;5036090;28;20041;-93
2021/10/13 11:39:32;;;;;;;22.30;15.55;;;8.30;99.90;;;;;;5020073;28;20398;-91
2021/10/13 11:41:59;;;;;;;26.00;16.48;;;8.30;99.90;;;;;;5018136;28;20079;-90
2021/10/13 11:44:27;;;;;;;26.48;16.48;;;8.30;99.90;;;;;;5033402;28;20025;-91
2021/10/13 11:47:04;;;;;;;23.80;16.65;;;8.30;99.90;;;;;;5077521;28;20032;-91
2021/10/13 11:49:30;;;;;;;25.58;14.63;;;8.30;99.90;;;;;;5059581;28;20036;-91
2021/10/13 11:52:11;;;;;;;20.52;13.52;;;8.30;99.90;;;;;;5056200;28;20028;-92
2021/10/13 11:54:37;;;;;;;20.15;11.52;;;8.30;99.90;;;;;;5035403;28;20029;-93
2021/10/13 11:57:03;;;;;;;19.23;12.27;;;8.30;99.90;;;;;;5020233;28;20440;-92
2021/10/13 11:59:30;;;;;;;27.85;14.90;;;8.40;99.90;;;;;;5019714;28;20418;-92
2021/10/13 12:02:08;;;;;;;24.40;13.07;;;8.40;99.90;;;;;;5020031;28;20160;-93
2021/10/13 12:04:34;;;;;;;18.92;12.82;;;8.40;99.90;;;;;;5022217;28;20096;-95
2021/10/13 12:07:00;;;;;;;23.20;14.18;;;8.40;99.90;;;;;;5024544;28;20110;-93
2021/10/13 12:09:29;;;;;;;17.45;12.00;;;8.40;99.90;;;;;;5025025;28;20025;-94
2021/10/13 12:12:11;;;;;;;19.10;11.10;;;8.40;99.90;;;;;;5032109;28;20025;-94
2021/10/13 12:14:37;;;;;;;20.73;14.07;;;8.40;99.90;;;;;;5029281;28;20045;-95
2021/10/13 12:17:21;;;;;;;22.90;14.23;;;8.40;99.90;;;;;;5021523;28;20108;-94
2021/10/13 12:19:47;;;;;;;20.83;12.90;;;8.40;99.90;;;;;;5042536;28;20456;-94
2021/10/13 12:22:12;;;;;;;21.10;14.20;;;8.40;99.90;;;;;;5037943;28;20294;-94
2021/10/13 12:24:38;;;;;;;16.95;10.52;;;8.40;99.90;;;;;;5040727;28;20127;-95
2021/10/13 12:27:04;;;;;;;23.73;15.93;;;8.40;99.90;;;;;;5024867;28;20499;-93
2021/10/13 12:29:39;;;;;;;23.00;13.90;;;8.40;99.90;;;;;;5028863;28;20037;-96
2021/10/13 12:32:18;;;;;;;19.38;12.57;;;8.40;99.90;;;;;;5040892;28;20104;-94
2021/10/13 12:34:47;;;;;;;37.28;14.40;;;8.40;99.90;;;;;;5026901;28;20141;-94
2021/10/13 12:37:13;;;;;;;24.75;14.25;;;8.40;99.90;;;;;;5040540;28;20045;-93
2021/10/13 12:39:40;;;;;;;20.10;13.45;;;8.40;99.90;;;;;;5039051;28;20026;-94
2021/10/13 12:42:11;;;;;;;19.05;11.88;;;8.40;99.90;;;;;;5037139;28;20041;-93
2021/10/13 12:45:07;;;;;;;22.17;14.27;;;8.40;99.90;;;;;;5038245;28;20045;-94
2021/10/13 12:48:16;;;;;;;18.15;12.35;;;8.40;99.90;;;;;;5049505;28;20065;-93
2021/10/13 12:51:51;;;;;;;23.70;14.85;;;8.40;99.90;;;;;;5037979;28;20072;-94
2021/10/13 12:54:55;;;;;;;;;;;;;;;;;;;;;
2021/10/13 12:57:55;;;;;;;;;;;;;;;;;;;;;
2021/10/13 13:00:37;;;;;;;23.45;14.70;;;8.50;99.90;;;;;;5034367;28;20115;-95
2021/10/13 13:03:25;;;;;;;18.35;13.30;;;8.50;99.90;;;;;;5062712;28;20025;-95
2021/10/13 13:05:56;;;;;;;21.70;13.48;;;8.50;99.90;;;;;;5051407;28;20045;-94
2021/10/13 13:08:41;;;;;;;23.20;14.38;;;8.50;99.90;;;;;;5036032;28;20117;-96
2021/10/13 13:14:38;;;;;;;20.35;12.75;;;8.50;99.90;;;;;;5043560;28;20052;-96
2021/10/13 13:17:15;;;;;;;23.85;14.48;;;8.50;99.90;;;;;;5052348;28;20026;-93
2021/10/13 13:19:47;;;;;;;24.20;15.27;;;8.50;99.90;;;;;;5053872;28;20017;-94
2021/10/13 13:22:18;;;;;;;21.80;14.77;;;8.50;99.90;;;;;;5051316;28;20029;-93
2021/10/13 13:24:59;;;;;;;21.05;13.50;;;8.50;99.90;;;;;;5041720;28;20060;-93
2021/10/13 13:27:35;;;;;;;21.58;14.93;;;8.50;99.90;;;;;;5047602;28;20070;-94
2021/10/13 13:30:02;;;;;;;22.63;14.68;;;8.50;99.90;;;;;;5050256;28;20173;-94
2021/10/13 13:32:38;;;;;;;24.45;14.05;;;8.50;99.90;;;;;;5033823;28;20029;-94
2021/10/13 13:35:07;;;;;;;22.00;13.35;;;8.50;99.90;;;;;;5033763;28;20050;-93
2021/10/13 13:37:40;;;;;;;20.38;13.27;;;8.50;99.90;;;;;;5036100;28;20477;-94
2021/10/13 13:40:12;;;;;;;23.77;15.07;;;8.50;99.90;;;;;;5034101;28;20072;-94
2021/10/13 13:42:49;;;;;;;22.10;13.60;;;8.50;99.90;;;;;;5035352;28;20392;-95
2021/10/13 13:45:15;;;;;;;23.60;15.65;;;8.40;99.90;;;;;;5034625;28;20035;-93
2021/10/13 13:48:03;;;;;;;20.25;12.80;;;8.40;99.90;;;;;;5032766;28;20116;-95
2021/10/13 13:50:32;;;;;;;20.90;12.57;;;8.40;99.90;;;;;;5038740;28;20038;-93
2021/10/13 13:52:58;;;;;;;21.85;13.57;;;8.40;99.90;;;;;;5041865;28;20024;-94
2021/10/13 13:56:02;;;;;;;20.10;11.60;;;8.50;99.90;;;;;;5040874;28;20092;-95
2021/10/13 13:58:51;;;;;;;32.27;12.50;;;8.50;99.90;;;;;;5047260;28;20025;-94
2021/10/13 14:01:22;;;;;;;21.35;12.70;;;8.50;99.90;;;;;;5044940;28;20358;-93
2021/10/13 14:03:51;;;;;;;20.88;13.45;;;8.50;99.90;;;;;;5058323;28;20029;-94
2021/10/13 14:06:32;;;;;;;24.00;15.68;;;8.50;99.90;;;;;;5022225;28;20046;-94
2021/10/13 14:09:11;;;;;;;19.33;12.20;;;8.50;99.90;;;;;;5040439;28;20029;-94
2021/10/13 14:11:54;;;;;;;19.60;11.40;;;8.50;99.90;;;;;;5057401;28;20043;-93
2021/10/13 14:17:55;;;;;;;24.17;16.50;;;8.50;99.90;;;;;;5041795;28;20037;-94
2021/10/13 14:20:52;;;;;;;25.55;13.48;;;8.50;99.90;;;;;;5057701;28;20040;-94
2021/10/13 14:24:02;;;;;;;27.52;12.77;;;8.50;99.90;;;;;;5041040;28;20095;-93
2021/10/13 14:33:43;;;;;;;19.17;13.30;;;8.50;99.90;;;;;;5062522;28;20076;-95
2021/10/13 14:36:40;;;;;;;17.63;12.05;;;8.50;99.90;;;;;;5073862;28;20045;-94
2021/10/13 14:39:35;;;;;;;25.10;15.38;;;8.50;99.90;;;;;;5054018;28;20159;-94
2021/10/13 14:46:29;;;;;;;22.63;15.00;;;8.50;99.90;;;;;;4961943;28;20047;-95
2021/10/13 14:50:00;;;;;;;23.05;13.95;;;8.50;99.90;;;;;;4944770;29;20058;-93
2021/10/13 14:55:58;;;;;;;26.00;15.57;;;8.50;99.90;;;;;;4888812;29;20041;-93